Strona główna
METAR-TAF:

METAR-TAF

Lotnisko :

Port lotniczy Saint-Étienne

Saint-Étienne, Francja

Szerokość geograficzna: 45-32N, Długość geograficzna: 004-18E, wysokość: 404 m

Aktualna obserwacja pogody

Raport powstał 26 minut temu, godzina 13:00 UTC
Wiatr 6 kt od północno-północny zachód, zmienny między północny zachód i północ
Temperatura 4°C
Wilgotność 81%
Ciśnienie 1018 hPa
Widzialność 10 km lub więcej
Zachmurzenie całkowite na wysokości 2100 ft

METAR: LFMH 301300Z AUTO 33006KT 310V010 9999 OVC021 04/01 Q1018

czas: 15:26 (13:26 UTC)


TAF: brakujący

Obserwacja i prognoza pogody dla ponad 4000 lotnisk (raport METAR i TAF).

Dostępne stacje oznaczono żółtymi i czerwonymi punktami na mapie.

Najedź kursorem aby zobaczyć nazwę stacji.

Kliknij aby zobaczyć obserwacje i prognozy pogody.

Aby zmienić mapę: kliknij na zielony przycisk z czarnym krzyżykiem, aby powiększyć; na zielony przycisk z myślnikiem, aby pomniejszyć; na zielone strzałki, aby przejść do map sąsiednich.


METAR-TAF: